Time;durP1;ratioP1;P1;durP2;ratioP2;P2;SDS_P1;SDS_P2;PMS_P1;PMS_P2;Temp;Humidity;BMP_temperature;BMP_pressure;BME280_temperature;BME280_humidity;BME280_pressure;Samples;Min_cycle;Max_cycle;Signal;HPM_P1;HPM_P2
2022/05/06 00:01:11;;;;;;;64.10;29.98;;;;;;;;;;4971655;28;95365;-74
2022/05/06 00:03:37;;;;;;;60.67;29.55;;;;;;;;;;4972315;28;96775;-74
2022/05/06 00:06:04;;;;;;;55.85;28.33;;;;;;;;;;4971492;28;97341;-74
2022/05/06 00:08:30;;;;;;;58.25;28.33;;;;;;;;;;4974244;28;95339;-75
2022/05/06 00:10:57;;;;;;;58.40;27.92;;;;;;;;;;4971599;28;97407;-76
2022/05/06 00:13:23;;;;;;;58.13;28.02;;;;;;;;;;4971003;28;95292;-77
2022/05/06 00:15:49;;;;;;;48.33;25.55;;;;;;;;;;4971871;28;96474;-76
2022/05/06 00:18:15;;;;;;;41.30;22.20;;;;;;;;;;4971345;28;97311;-75
2022/05/06 00:20:42;;;;;;;42.35;22.23;;;;;;;;;;4971549;28;95238;-76
2022/05/06 00:23:08;;;;;;;47.60;23.17;;;;;;;;;;4972239;28;96824;-76
2022/05/06 00:25:34;;;;;;;40.90;21.10;;;;;;;;;;4971700;28;97330;-76
2022/05/06 00:28:01;;;;;;;35.35;18.38;;;;;;;;;;4970521;28;95252;-75
2022/05/06 00:30:27;;;;;;;36.45;19.67;;;;;;;;;;4974920;28;96825;-76
2022/05/06 00:32:53;;;;;;;34.92;20.10;;;;;;;;;;4971633;28;95305;-77
2022/05/06 00:35:19;;;;;;;40.20;20.58;;;;;;;;;;4973641;28;96220;-74
2022/05/06 00:37:46;;;;;;;41.90;20.27;;;;;;;;;;4975052;28;96074;-76
2022/05/06 00:40:13;;;;;;;38.72;20.67;;;;;;;;;;4974703;28;95109;-76
2022/05/06 00:42:40;;;;;;;43.38;20.42;;;;;;;;;;4974227;28;98084;-76
2022/05/06 00:45:06;;;;;;;46.15;22.08;;;;;;;;;;4974719;28;97288;-74
2022/05/06 00:47:34;;;;;;;49.67;23.00;;;;;;;;;;4973888;28;95202;-76
2022/05/06 00:50:01;;;;;;;46.05;22.88;;;;;;;;;;4975173;28;97300;-76
2022/05/06 00:52:28;;;;;;;46.58;23.10;;;;;;;;;;4977118;28;96963;-74
2022/05/06 00:54:54;;;;;;;51.10;24.38;;;;;;;;;;4974458;28;96540;-75
2022/05/06 00:57:20;;;;;;;56.33;24.92;;;;;;;;;;4973505;28;96255;-76
2022/05/06 01:02:32;;;;;;;52.80;25.80;;;;;;;;;;4972834;28;96879;-74
2022/05/06 01:05:02;;;;;;;48.88;23.75;;;;;;;;;;4973995;28;97263;-73
2022/05/06 01:07:29;;;;;;;62.10;28.42;;;;;;;;;;4974706;28;95390;-73
2022/05/06 01:09:55;;;;;;;68.03;27.98;;;;;;;;;;4973711;28;96857;-76
2022/05/06 01:12:22;;;;;;;56.97;26.65;;;;;;;;;;4974029;28;97296;-74
2022/05/06 01:14:48;;;;;;;60.45;28.25;;;;;;;;;;4978158;28;95050;-76
2022/05/06 01:17:16;;;;;;;67.03;28.10;;;;;;;;;;4974563;28;97315;-74
2022/05/06 01:19:43;;;;;;;78.03;28.95;;;;;;;;;;4974709;28;95308;-76
2022/05/06 01:22:09;;;;;;;82.03;31.80;;;;;;;;;;4974525;28;96988;-74
2022/05/06 01:24:35;;;;;;;80.03;32.35;;;;;;;;;;4973965;28;97142;-76
2022/05/06 01:27:03;;;;;;;135.57;32.47;;;;;;;;;;4968202;28;95147;-75
2022/05/06 01:29:33;;;;;;;85.50;30.73;;;;;;;;;;4954379;28;96794;-74
2022/05/06 01:32:01;;;;;;;67.50;29.25;;;;;;;;;;4953341;28;97716;-74
2022/05/06 01:34:29;;;;;;;60.03;28.42;;;;;;;;;;4954839;28;95270;-76
2022/05/06 01:36:57;;;;;;;70.47;31.17;;;;;;;;;;4957561;28;97149;-75
2022/05/06 01:39:28;;;;;;;64.03;28.20;;;;;;;;;;4954669;28;95908;-74
2022/05/06 01:41:55;;;;;;;69.40;27.73;;;;;;;;;;4954937;28;96734;-76
2022/05/06 01:44:24;;;;;;;63.97;25.05;;;;;;;;;;4965578;28;95216;-74
2022/05/06 01:46:53;;;;;;;108.10;24.70;;;;;;;;;;4974030;28;95199;-75
2022/05/06 01:49:20;;;;;;;75.30;23.75;;;;;;;;;;4973830;28;96060;-73
2022/05/06 01:51:47;;;;;;;91.70;24.08;;;;;;;;;;4973449;28;97413;-76
2022/05/06 01:54:14;;;;;;;53.55;24.75;;;;;;;;;;4974368;28;95297;-74
2022/05/06 01:56:41;;;;;;;67.97;24.55;;;;;;;;;;4974087;28;96674;-74
2022/05/06 01:59:08;;;;;;;130.25;23.85;;;;;;;;;;4976376;28;96280;-76
2022/05/06 02:01:34;;;;;;;85.70;23.80;;;;;;;;;;4970531;28;96964;-75
2022/05/06 02:06:45;;;;;;;69.93;20.40;;;;;;;;;;4954011;28;95756;-76
2022/05/06 02:09:12;;;;;;;100.50;23.00;;;;;;;;;;4954563;28;96784;-75
2022/05/06 02:11:38;;;;;;;86.63;22.73;;;;;;;;;;4953333;28;97285;-73
2022/05/06 02:14:04;;;;;;;192.65;24.27;;;;;;;;;;4954287;28;96062;-73
2022/05/06 02:16:31;;;;;;;112.57;23.65;;;;;;;;;;4954122;28;96753;-73
2022/05/06 02:18:57;;;;;;;191.88;26.25;;;;;;;;;;4956796;28;97545;-72
2022/05/06 02:21:23;;;;;;;56.60;21.98;;;;;;;;;;4966175;28;96641;-73
2022/05/06 02:23:50;;;;;;;50.40;22.55;;;;;;;;;;4973688;28;97324;-73
2022/05/06 02:26:16;;;;;;;84.68;20.25;;;;;;;;;;4973068;28;95139;-73
2022/05/06 02:28:42;;;;;;;64.68;20.38;;;;;;;;;;4973515;28;96807;-73
2022/05/06 02:33:53;;;;;;;98.68;21.90;;;;;;;;;;4973128;28;95204;-74
2022/05/06 02:36:20;;;;;;;74.97;23.60;;;;;;;;;;4973351;28;96611;-75
2022/05/06 02:38:46;;;;;;;56.22;24.17;;;;;;;;;;4973291;28;97789;-75
2022/05/06 02:41:14;;;;;;;56.50;23.83;;;;;;;;;;4974302;28;95384;-74
2022/05/06 02:43:40;;;;;;;47.10;22.02;;;;;;;;;;4973327;28;97338;-73
2022/05/06 02:46:06;;;;;;;107.25;26.55;;;;;;;;;;4970522;28;95311;-74
2022/05/06 02:48:33;;;;;;;52.05;22.70;;;;;;;;;;4971883;28;97042;-75
2022/05/06 02:50:59;;;;;;;88.93;24.08;;;;;;;;;;4973279;28;97463;-73
2022/05/06 02:53:26;;;;;;;54.15;22.13;;;;;;;;;;4973207;28;95182;-73
2022/05/06 02:55:52;;;;;;;63.28;21.25;;;;;;;;;;4972644;28;96771;-73
2022/05/06 02:58:18;;;;;;;85.55;19.85;;;;;;;;;;4972308;28;97084;-74
2022/05/06 03:00:44;;;;;;;122.55;21.88;;;;;;;;;;4972497;28;95515;-74
2022/05/06 03:03:11;;;;;;;69.60;22.30;;;;;;;;;;4975447;28;96941;-73
2022/05/06 03:05:37;;;;;;;60.83;22.42;;;;;;;;;;4972983;28;95397;-73
2022/05/06 03:08:04;;;;;;;218.88;24.17;;;;;;;;;;4972809;28;96849;-74
2022/05/06 03:10:30;;;;;;;54.20;20.83;;;;;;;;;;4970966;28;97277;-73
2022/05/06 03:12:58;;;;;;;67.25;18.65;;;;;;;;;;4971802;28;95836;-74
2022/05/06 03:15:25;;;;;;;160.88;20.60;;;;;;;;;;4972373;28;96775;-76
2022/05/06 03:17:56;;;;;;;55.75;19.90;;;;;;;;;;4972905;28;97302;-74
2022/05/06 03:20:22;;;;;;;120.65;19.88;;;;;;;;;;4972646;28;95164;-74
2022/05/06 03:22:50;;;;;;;78.43;19.95;;;;;;;;;;4972372;28;96825;-74
2022/05/06 03:25:20;;;;;;;74.43;18.45;;;;;;;;;;4975088;28;97269;-75
2022/05/06 03:30:31;;;;;;;51.90;18.80;;;;;;;;;;4971914;28;97378;-73
2022/05/06 03:32:59;;;;;;;45.42;18.67;;;;;;;;;;4972474;28;95328;-74
2022/05/06 03:35:27;;;;;;;68.97;18.05;;;;;;;;;;4972412;28;96792;-75
2022/05/06 03:37:54;;;;;;;70.60;18.02;;;;;;;;;;4972149;28;97935;-73
2022/05/06 03:40:21;;;;;;;56.13;18.52;;;;;;;;;;4972364;28;95748;-74
2022/05/06 03:42:47;;;;;;;114.43;20.60;;;;;;;;;;4972593;28;95725;-74
2022/05/06 03:45:14;;;;;;;59.90;20.63;;;;;;;;;;4972053;28;97413;-74
2022/05/06 03:47:40;;;;;;;148.52;19.17;;;;;;;;;;4964929;28;95992;-73
2022/05/06 03:52:52;;;;;;;97.68;19.95;;;;;;;;;;4952872;28;95129;-73
2022/05/06 03:55:19;;;;;;;132.32;22.45;;;;;;;;;;4952895;28;96847;-77
2022/05/06 03:57:45;;;;;;;77.65;19.50;;;;;;;;;;4952308;28;96023;-74
2022/05/06 04:00:12;;;;;;;41.55;17.35;;;;;;;;;;4952855;28;95376;-74
2022/05/06 04:02:39;;;;;;;42.03;17.50;;;;;;;;;;4967592;28;97144;-73
2022/05/06 04:05:06;;;;;;;65.68;18.02;;;;;;;;;;4952400;28;97216;-74
2022/05/06 04:07:32;;;;;;;102.68;19.02;;;;;;;;;;4952519;28;95357;-74
2022/05/06 04:09:58;;;;;;;46.50;16.92;;;;;;;;;;4958255;28;96975;-75
2022/05/06 04:12:25;;;;;;;58.42;16.52;;;;;;;;;;4956378;28;95408;-74
2022/05/06 04:14:52;;;;;;;38.75;17.27;;;;;;;;;;4974812;28;96650;-74
2022/05/06 04:17:20;;;;;;;49.75;16.58;;;;;;;;;;4975365;28;97576;-74
2022/05/06 19:37:42;;;;;;;29.70;17.02;;;;;;;;;;5070836;27;95357;-76
2022/05/06 19:40:13;;;;;;;24.20;15.38;;;;;;;;;;5050740;27;97434;-78
2022/05/06 19:42:39;;;;;;;19.80;12.83;;;;;;;;;;5048490;27;95288;-76
2022/05/06 19:45:06;;;;;;;23.33;12.52;;;;;;;;;;5045758;27;96774;-75
2022/05/06 19:47:33;;;;;;;21.17;12.30;;;;;;;;;;5046390;27;97304;-77
2022/05/06 19:49:59;;;;;;;24.80;12.52;;;;;;;;;;5047821;27;95316;-73
2022/05/06 19:55:11;;;;;;;15.32;7.75;;;;;;;;;;5041859;27;97800;-74
2022/05/06 19:57:38;;;;;;;12.52;7.75;;;;;;;;;;5056487;27;95396;-74
2022/05/06 20:00:04;;;;;;;19.75;8.00;;;;;;;;;;5026628;27;99888;-74
2022/05/06 20:02:31;;;;;;;13.27;7.75;;;;;;;;;;5044972;27;95350;-73
2022/05/06 20:04:57;;;;;;;13.77;8.18;;;;;;;;;;5047075;27;96769;-73
2022/05/06 20:07:24;;;;;;;12.77;8.80;;;;;;;;;;5034110;27;97858;-75
2022/05/06 20:09:50;;;;;;;18.88;9.48;;;;;;;;;;5012130;27;96258;-75
2022/05/06 20:12:16;;;;;;;19.33;9.75;;;;;;;;;;5047441;27;96603;-74
2022/05/06 20:14:45;;;;;;;16.17;9.82;;;;;;;;;;5047562;27;97284;-74
2022/05/06 20:17:14;;;;;;;14.70;9.55;;;;;;;;;;5047735;27;95318;-74
2022/05/06 20:19:41;;;;;;;17.60;9.38;;;;;;;;;;5051697;27;97227;-75
2022/05/06 20:22:08;;;;;;;24.45;9.57;;;;;;;;;;5045271;27;95843;-74
2022/05/06 20:24:55;;;;;;;20.38;9.75;;;;;;;;;;5049193;27;98698;-76
2022/05/06 20:27:21;;;;;;;18.20;9.93;;;;;;;;;;5046298;27;97092;-75
2022/05/06 20:29:48;;;;;;;14.27;9.77;;;;;;;;;;5046076;27;96138;-74
2022/05/06 20:32:15;;;;;;;18.83;10.07;;;;;;;;;;5048242;27;96873;-74
2022/05/06 20:34:44;;;;;;;18.83;10.05;;;;;;;;;;5046581;27;97215;-74
2022/05/06 20:37:11;;;;;;;23.00;10.95;;;;;;;;;;5045073;27;95434;-74
2022/05/06 20:39:37;;;;;;;16.48;9.93;;;;;;;;;;5039028;27;97336;-74
2022/05/06 20:42:04;;;;;;;19.50;10.07;;;;;;;;;;5049635;27;97347;-74
2022/05/06 20:44:31;;;;;;;15.77;10.48;;;;;;;;;;5044825;27;96767;-74
2022/05/06 20:46:57;;;;;;;20.08;10.05;;;;;;;;;;5044174;27;97278;-74
2022/05/06 20:49:24;;;;;;;16.92;10.57;;;;;;;;;;5028663;27;95852;-74
2022/05/06 20:51:50;;;;;;;18.70;12.65;;;;;;;;;;5031075;27;96540;-74
2022/05/06 20:54:16;;;;;;;13.77;11.93;;;;;;;;;;5032734;28;96074;-74
2022/05/06 20:56:43;;;;;;;21.15;12.30;;;;;;;;;;5032419;27;95153;-74
2022/05/06 20:59:21;;;;;;;26.08;11.38;;;;;;;;;;5029187;27;96620;-74
2022/05/06 21:01:48;;;;;;;19.75;11.05;;;;;;;;;;5031145;27;97388;-74
2022/05/06 21:04:14;;;;;;;23.45;11.00;;;;;;;;;;5031693;27;96010;-75
2022/05/06 21:06:41;;;;;;;29.27;11.18;;;;;;;;;;5027203;28;96115;-76
2022/05/06 21:14:38;;;;;;;17.50;9.88;;;;;;;;;;5029738;27;97397;-76
2022/05/06 21:17:05;;;;;;;16.02;9.57;;;;;;;;;;5031315;28;95295;-75
2022/05/06 21:19:31;;;;;;;15.13;9.15;;;;;;;;;;5031631;27;95764;-75
2022/05/06 21:21:58;;;;;;;14.85;8.90;;;;;;;;;;5032113;27;96313;-75
2022/05/06 21:24:30;;;;;;;12.88;8.57;;;;;;;;;;5033383;27;95384;-75
2022/05/06 21:26:56;;;;;;;10.93;8.85;;;;;;;;;;5035604;28;96699;-77
2022/05/06 21:29:22;;;;;;;14.30;9.43;;;;;;;;;;5033806;27;95406;-76
2022/05/06 21:31:48;;;;;;;18.08;10.98;;;;;;;;;;5048208;27;96405;-76
2022/05/06 21:34:15;;;;;;;18.02;10.63;;;;;;;;;;5042958;27;97680;-75
2022/05/06 21:36:41;;;;;;;17.52;10.88;;;;;;;;;;5031779;27;95398;-73
2022/05/06 21:39:08;;;;;;;18.45;11.27;;;;;;;;;;5032458;28;96963;-76
2022/05/06 21:41:34;;;;;;;16.33;10.60;;;;;;;;;;5032839;27;97131;-77
2022/05/06 21:44:00;;;;;;;15.60;10.25;;;;;;;;;;5032131;28;95410;-74
2022/05/06 21:46:27;;;;;;;15.07;10.48;;;;;;;;;;5029831;28;96811;-76
2022/05/06 21:48:53;;;;;;;19.25;10.40;;;;;;;;;;5038293;27;95347;-76
2022/05/06 21:51:19;;;;;;;19.20;10.48;;;;;;;;;;5042469;27;96778;-75
2022/05/06 21:53:46;;;;;;;17.00;9.70;;;;;;;;;;5032387;28;97348;-76
2022/05/06 21:56:12;;;;;;;14.98;10.68;;;;;;;;;;5032458;27;95321;-76
2022/05/06 21:58:39;;;;;;;15.55;10.57;;;;;;;;;;5032106;27;95784;-74
2022/05/06 22:01:06;;;;;;;15.32;10.85;;;;;;;;;;5029901;27;96434;-77
2022/05/06 22:03:33;;;;;;;14.38;10.20;;;;;;;;;;5031962;28;95259;-77
2022/05/06 22:05:59;;;;;;;15.45;10.25;;;;;;;;;;5031110;28;96805;-74
2022/05/06 22:08:25;;;;;;;14.00;10.68;;;;;;;;;;5033759;28;97300;-76
2022/05/06 22:10:52;;;;;;;15.65;10.70;;;;;;;;;;5032697;27;98578;-76
2022/05/06 22:13:19;;;;;;;14.73;11.05;;;;;;;;;;5032047;27;97340;-75
2022/05/06 22:15:45;;;;;;;21.15;10.45;;;;;;;;;;5032251;27;96628;-77
2022/05/06 22:18:12;;;;;;;18.33;10.25;;;;;;;;;;5030552;28;96772;-76
2022/05/06 22:20:38;;;;;;;28.95;10.60;;;;;;;;;;5032132;27;96610;-77
2022/05/06 22:23:05;;;;;;;16.50;10.40;;;;;;;;;;5031849;28;95360;-77
2022/05/06 22:25:31;;;;;;;14.75;10.65;;;;;;;;;;5032103;28;95693;-76
2022/05/06 22:27:58;;;;;;;21.63;10.52;;;;;;;;;;5030627;27;97262;-76
2022/05/06 22:30:29;;;;;;;16.48;10.25;;;;;;;;;;5034987;27;95472;-77
2022/05/06 22:35:40;;;;;;;14.15;9.75;;;;;;;;;;5031809;27;95235;-77
2022/05/06 22:38:07;;;;;;;12.23;9.77;;;;;;;;;;5031493;28;96987;-76
2022/05/06 22:40:33;;;;;;;13.00;9.90;;;;;;;;;;5032707;27;97391;-76
2022/05/06 22:48:33;;;;;;;14.40;9.50;;;;;;;;;;5033608;27;97398;-76
2022/05/06 22:51:00;;;;;;;13.18;9.80;;;;;;;;;;5053295;27;96170;-75
2022/05/06 22:53:27;;;;;;;14.35;9.60;;;;;;;;;;5044620;27;96897;-75
2022/05/06 22:55:57;;;;;;;13.07;9.38;;;;;;;;;;5025017;28;95274;-74
2022/05/06 22:58:23;;;;;;;14.73;9.23;;;;;;;;;;5032214;28;96800;-78
2022/05/06 23:00:52;;;;;;;16.40;9.70;;;;;;;;;;5032701;28;96100;-76
2022/05/06 23:03:21;;;;;;;13.35;9.90;;;;;;;;;;5031287;27;95249;-77
2022/05/06 23:05:47;;;;;;;13.00;9.70;;;;;;;;;;5032197;27;97112;-75
2022/05/06 23:08:14;;;;;;;15.30;10.05;;;;;;;;;;5032295;28;97338;-76
2022/05/06 23:10:41;;;;;;;14.23;9.95;;;;;;;;;;5031491;27;95270;-77
2022/05/06 23:13:08;;;;;;;18.42;9.15;;;;;;;;;;5030803;28;96867;-77
2022/05/06 23:15:34;;;;;;;12.80;9.73;;;;;;;;;;5035739;28;97477;-77
2022/05/06 23:18:00;;;;;;;17.52;10.15;;;;;;;;;;5031973;27;95709;-75
2022/05/06 23:20:27;;;;;;;15.88;9.55;;;;;;;;;;5032597;28;97349;-76
2022/05/06 23:22:53;;;;;;;16.85;10.23;;;;;;;;;;5031483;27;95303;-76
2022/05/06 23:25:20;;;;;;;13.77;9.90;;;;;;;;;;5031064;27;96546;-74
2022/05/06 23:27:46;;;;;;;18.92;9.88;;;;;;;;;;5032474;28;97361;-74
2022/05/06 23:30:12;;;;;;;16.15;10.35;;;;;;;;;;5032303;28;95220;-73
2022/05/06 23:32:38;;;;;;;14.10;10.20;;;;;;;;;;5030340;27;96786;-74
2022/05/06 23:35:05;;;;;;;17.88;10.15;;;;;;;;;;5034806;27;97348;-74
2022/05/06 23:37:34;;;;;;;15.98;10.02;;;;;;;;;;5054574;27;95461;-75
2022/05/06 23:40:01;;;;;;;14.52;10.32;;;;;;;;;;5051358;27;97267;-74
2022/05/06 23:42:29;;;;;;;19.55;9.95;;;;;;;;;;5049704;27;95370;-75
2022/05/06 23:44:55;;;;;;;20.88;10.10;;;;;;;;;;5031170;28;97821;-74
2022/05/06 23:47:22;;;;;;;15.10;9.50;;;;;;;;;;5029403;27;97133;-74
2022/05/06 23:49:49;;;;;;;13.98;10.18;;;;;;;;;;5025887;27;95378;-74
2022/05/06 23:52:15;;;;;;;14.48;9.77;;;;;;;;;;5031087;27;97058;-74
2022/05/06 23:54:42;;;;;;;19.13;9.98;;;;;;;;;;5030089;27;96911;-74
2022/05/06 23:57:08;;;;;;;12.80;9.68;;;;;;;;;;5034477;27;95299;-74
2022/05/06 23:59:34;;;;;;;16.15;10.55;;;;;;;;;;5030913;27;96282;-75
